CheckWX is a tool to help pilots better visualize weather data.  It is not intended as a substitute for an official pre-flight weather briefing.

10:34:09 UTC

KMMU METAR
Morristown Municipal Airport
Morristown, New Jersey, USA
Current

39 mins ago

KMMU 060955Z AUTO 32008KT 10SM CLR 09/05 A3001 RMK AO2
Observed
Apr-6 @ 09:55 UTC
Wind
  • 320° at 8 KTS
Visibility
Flight Rules
VFR
Cloud Levels
  • Clear skies
Temperature
C / 48°F
Dewpoint
C / 41°F
Humidity
76%
Altimeter
30.01" Hg
Pressure
1016.22 hPa
Previous

59 mins ago

KMMU 060935Z AUTO 00000KT 10SM CLR 09/06 A3000 RMK AO2
Observed
Apr-6 @ 09:35 UTC
Visibility
Flight Rules
VFR
Cloud Levels
  • Clear skies
Temperature
C / 48°F
Dewpoint
C / 43°F
Humidity
82%
Altimeter
30" Hg
Pressure
1015.92 hPa
Previous

1 hour ago

KMMU 060915Z AUTO 34004KT 10SM SCT050 BKN065 10/07 A3000 RMK AO2
Observed
Apr-6 @ 09:15 UTC
Wind
  • 340° at 4 KTS
Visibility
Flight Rules
VFR
Cloud Levels
  • Scattered at 5,000' AGL
  • Broken at 6,500' AGL
Temperature
10°C / 50°F
Dewpoint
C / 45°F
Humidity
82%
Altimeter
30" Hg
Pressure
1015.92 hPa